sensor_id;sensor_type;location;lat;lon;timestamp;pressure;altitude;pressure_sealevel;temperature;humidity
45369;BME280;51342;55.250;37.668;2023-02-01T00:03:58;98368.53;;;-0.50;77.72
45369;BME280;51342;55.250;37.668;2023-02-01T00:06:29;98372.59;;;-0.52;77.99
45369;BME280;51342;55.250;37.668;2023-02-01T00:09:00;98366.53;;;-0.55;77.99
45369;BME280;51342;55.250;37.668;2023-02-01T00:11:32;98366.63;;;-0.53;78.04
45369;BME280;51342;55.250;37.668;2023-02-01T00:14:04;98372.75;;;-0.51;78.06
45369;BME280;51342;55.250;37.668;2023-02-01T00:16:35;98371.09;;;-0.50;77.97
45369;BME280;51342;55.250;37.668;2023-02-01T00:19:11;98368.41;;;-0.52;77.79
45369;BME280;51342;55.250;37.668;2023-02-01T00:21:42;98366.75;;;-0.51;77.90
45369;BME280;51342;55.250;37.668;2023-02-01T00:24:15;98370.94;;;-0.52;78.19
45369;BME280;51342;55.250;37.668;2023-02-01T00:26:46;98373.47;;;-0.52;78.26
45369;BME280;51342;55.250;37.668;2023-02-01T00:29:19;98363.97;;;-0.55;78.05
45369;BME280;51342;55.250;37.668;2023-02-01T00:31:51;98370.94;;;-0.52;78.04
45369;BME280;51342;55.250;37.668;2023-02-01T00:34:23;98371.97;;;-0.50;78.01
45369;BME280;51342;55.250;37.668;2023-02-01T00:36:55;98360.66;;;-0.54;78.07
45369;BME280;51342;55.250;37.668;2023-02-01T00:39:27;98373.38;;;-0.54;78.10
45369;BME280;51342;55.250;37.668;2023-02-01T00:42:00;98378.56;;;-0.52;78.15
45369;BME280;51342;55.250;37.668;2023-02-01T00:44:31;98378.56;;;-0.52;78.13
45369;BME280;51342;55.250;37.668;2023-02-01T00:47:05;98377.94;;;-0.49;78.23
45369;BME280;51342;55.250;37.668;2023-02-01T00:49:36;98383.00;;;-0.49;78.16
45369;BME280;51342;55.250;37.668;2023-02-01T00:52:08;98379.69;;;-0.48;78.19
45369;BME280;51342;55.250;37.668;2023-02-01T00:54:39;98384.78;;;-0.48;78.15
45369;BME280;51342;55.250;37.668;2023-02-01T00:57:11;98384.00;;;-0.47;78.05
45369;BME280;51342;55.250;37.668;2023-02-01T00:59:42;98378.69;;;-0.50;78.24
45369;BME280;51342;55.250;37.668;2023-02-01T01:02:13;98379.69;;;-0.48;78.11
45369;BME280;51342;55.250;37.668;2023-02-01T01:04:45;98382.34;;;-0.47;77.93
45369;BME280;51342;55.250;37.668;2023-02-01T01:07:16;98376.38;;;-0.47;78.35
45369;BME280;51342;55.250;37.668;2023-02-01T01:09:48;98371.31;;;-0.47;78.29
45369;BME280;51342;55.250;37.668;2023-02-01T01:12:19;98382.34;;;-0.47;78.32
45369;BME280;51342;55.250;37.668;2023-02-01T01:14:51;98383.13;;;-0.48;78.19
45369;BME280;51342;55.250;37.668;2023-02-01T01:17:22;98377.28;;;-0.47;78.29
45369;BME280;51342;55.250;37.668;2023-02-01T01:19:54;98388.31;;;-0.46;78.12
45369;BME280;51342;55.250;37.668;2023-02-01T01:22:25;98383.13;;;-0.48;78.30
45369;BME280;51342;55.250;37.668;2023-02-01T01:24:57;98383.91;;;-0.49;78.19
45369;BME280;51342;55.250;37.668;2023-02-01T01:27:28;98379.03;;;-0.46;78.10
45369;BME280;51342;55.250;37.668;2023-02-01T01:29:59;98384.13;;;-0.46;78.26
45369;BME280;51342;55.250;37.668;2023-02-01T01:32:31;98377.94;;;-0.49;78.22
45369;BME280;51342;55.250;37.668;2023-02-01T01:35:02;98376.28;;;-0.49;78.53
45369;BME280;51342;55.250;37.668;2023-02-01T01:37:34;98392.50;;;-0.47;78.36
45369;BME280;51342;55.250;37.668;2023-02-01T01:40:07;98389.09;;;-0.47;78.17
45369;BME280;51342;55.250;37.668;2023-02-01T01:42:44;98386.31;;;-0.50;78.29
45369;BME280;51342;55.250;37.668;2023-02-01T01:45:30;98384.78;;;-0.48;78.35
45369;BME280;51342;55.250;37.668;2023-02-01T01:48:29;98381.88;;;-0.53;78.09
45369;BME280;51342;55.250;37.668;2023-02-01T01:51:05;98380.22;;;-0.52;78.34
45369;BME280;51342;55.250;37.668;2023-02-01T01:53:46;98378.88;;;-0.69;78.57
45369;BME280;51342;55.250;37.668;2023-02-01T01:56:18;98381.50;;;-0.58;78.50
45369;BME280;51342;55.250;37.668;2023-02-01T01:58:51;98378.44;;;-0.54;78.32
45369;BME280;51342;55.250;37.668;2023-02-01T02:01:23;98375.13;;;-0.52;78.31
45369;BME280;51342;55.250;37.668;2023-02-01T02:03:55;98373.75;;;-0.49;78.36
45369;BME280;51342;55.250;37.668;2023-02-01T02:06:39;98381.47;;;-0.47;78.33
45369;BME280;51342;55.250;37.668;2023-02-01T02:09:11;98369.44;;;-0.50;78.53
45369;BME280;51342;55.250;37.668;2023-02-01T02:11:43;98377.28;;;-0.47;78.54
45369;BME280;51342;55.250;37.668;2023-02-01T02:14:17;98378.16;;;-0.46;78.33
45369;BME280;51342;55.250;37.668;2023-02-01T02:20:01;98391.63;;;-0.47;78.28
45369;BME280;51342;55.250;37.668;2023-02-01T02:34:57;98393.47;;;-0.57;78.65
45369;BME280;51342;55.250;37.668;2023-02-01T02:42:52;98402.56;;;-0.48;78.61
45369;BME280;51342;55.250;37.668;2023-02-01T02:45:54;98399.03;;;-0.50;78.54
45369;BME280;51342;55.250;37.668;2023-02-01T02:51:54;98396.13;;;-0.55;78.72
45369;BME280;51342;55.250;37.668;2023-02-01T02:54:47;98399.66;;;-0.53;78.56
45369;BME280;51342;55.250;37.668;2023-02-01T02:57:28;98400.03;;;-0.48;78.67
45369;BME280;51342;55.250;37.668;2023-02-01T03:00:22;98402.19;;;-0.53;78.67
45369;BME280;51342;55.250;37.668;2023-02-01T03:03:14;98402.19;;;-0.53;78.84
45369;BME280;51342;55.250;37.668;2023-02-01T03:06:04;98406.66;;;-0.50;78.68
45369;BME280;51342;55.250;37.668;2023-02-01T03:08:42;98401.69;;;-0.49;78.67
45369;BME280;51342;55.250;37.668;2023-02-01T03:11:16;98401.03;;;-0.46;78.79
45369;BME280;51342;55.250;37.668;2023-02-01T03:13:54;98408.78;;;-0.45;78.73
45369;BME280;51342;55.250;37.668;2023-02-01T03:16:40;98408.63;;;-0.46;78.70
45369;BME280;51342;55.250;37.668;2023-02-01T03:19:24;98417.28;;;-0.44;78.71
45369;BME280;51342;55.250;37.668;2023-02-01T03:22:04;98413.09;;;-0.44;78.94
45369;BME280;51342;55.250;37.668;2023-02-01T03:24:49;98407.38;;;-0.51;78.67
45369;BME280;51342;55.250;37.668;2023-02-01T03:27:27;98414.59;;;-0.46;78.78
45369;BME280;51342;55.250;37.668;2023-02-01T03:30:07;98420.59;;;-0.45;78.90
45369;BME280;51342;55.250;37.668;2023-02-01T03:32:42;98422.38;;;-0.44;78.58
45369;BME280;51342;55.250;37.668;2023-02-01T03:38:27;98421.34;;;-0.46;78.75
45369;BME280;51342;55.250;37.668;2023-02-01T03:43:53;98423.88;;;-0.46;78.86
45369;BME280;51342;55.250;37.668;2023-02-01T03:46:35;98425.53;;;-0.47;78.78
45369;BME280;51342;55.250;37.668;2023-02-01T03:49:10;98429.09;;;-0.45;78.84
45369;BME280;51342;55.250;37.668;2023-02-01T03:51:43;98425.03;;;-0.43;78.97
45369;BME280;51342;55.250;37.668;2023-02-01T03:54:15;98423.38;;;-0.42;78.90
45369;BME280;51342;55.250;37.668;2023-02-01T03:56:50;98421.50;;;-0.45;78.86
45369;BME280;51342;55.250;37.668;2023-02-01T03:59:23;98422.22;;;-0.46;78.67
45369;BME280;51342;55.250;37.668;2023-02-01T04:01:55;98418.69;;;-0.48;78.90
45369;BME280;51342;55.250;37.668;2023-02-01T04:04:26;98418.81;;;-0.46;78.92
45369;BME280;51342;55.250;37.668;2023-02-01T04:07:00;98422.13;;;-0.47;78.95
45369;BME280;51342;55.250;37.668;2023-02-01T04:09:31;98422.13;;;-0.47;78.75
45369;BME280;51342;55.250;37.668;2023-02-01T04:12:03;98422.13;;;-0.47;78.86
45369;BME280;51342;55.250;37.668;2023-02-01T04:14:34;98429.84;;;-0.46;78.79
45369;BME280;51342;55.250;37.668;2023-02-01T04:17:06;98433.31;;;-0.45;79.17
45369;BME280;51342;55.250;37.668;2023-02-01T04:19:37;98426.44;;;-0.46;78.88
45369;BME280;51342;55.250;37.668;2023-02-01T04:22:08;98438.50;;;-0.44;78.76
45369;BME280;51342;55.250;37.668;2023-02-01T04:24:40;98434.19;;;-0.45;78.48
45369;BME280;51342;55.250;37.668;2023-02-01T04:27:11;98436.72;;;-0.45;78.55
45369;BME280;51342;55.250;37.668;2023-02-01T04:29:43;98444.34;;;-0.45;78.54
45369;BME280;51342;55.250;37.668;2023-02-01T04:32:16;98442.44;;;-0.47;78.31
45369;BME280;51342;55.250;37.668;2023-02-01T04:34:48;98446.63;;;-0.48;78.64
45369;BME280;51342;55.250;37.668;2023-02-01T04:37:19;98443.31;;;-0.47;78.68
45369;BME280;51342;55.250;37.668;2023-02-01T04:39:51;98455.16;;;-0.47;78.69
45369;BME280;51342;55.250;37.668;2023-02-01T04:42:22;98452.59;;;-0.47;78.51
45369;BME280;51342;55.250;37.668;2023-02-01T04:44:53;98450.84;;;-0.48;78.76
45369;BME280;51342;55.250;37.668;2023-02-01T04:47:25;98449.19;;;-0.48;78.66
45369;BME280;51342;55.250;37.668;2023-02-01T04:49:57;98459.22;;;-0.49;78.59
45369;BME280;51342;55.250;37.668;2023-02-01T04:52:28;98464.31;;;-0.49;78.54
45369;BME280;51342;55.250;37.668;2023-02-01T04:55:03;98465.81;;;-0.51;78.68
45369;BME280;51342;55.250;37.668;2023-02-01T04:57:35;98467.47;;;-0.52;78.77
45369;BME280;51342;55.250;37.668;2023-02-01T05:00:07;98469.28;;;-0.51;78.85
45369;BME280;51342;55.250;37.668;2023-02-01T05:02:39;98470.91;;;-0.51;78.59
45369;BME280;51342;55.250;37.668;2023-02-01T05:05:11;98471.16;;;-0.48;78.74
45369;BME280;51342;55.250;37.668;2023-02-01T05:07:42;98480.56;;;-0.47;78.71
45369;BME280;51342;55.250;37.668;2023-02-01T05:10:13;98478.66;;;-0.50;78.38
45369;BME280;51342;55.250;37.668;2023-02-01T05:12:45;98480.19;;;-0.52;78.57
45369;BME280;51342;55.250;37.668;2023-02-01T05:15:35;98485.41;;;-0.50;78.78
45369;BME280;51342;55.250;37.668;2023-02-01T05:18:06;98479.28;;;-0.52;78.71
45369;BME280;51342;55.250;37.668;2023-02-01T05:20:38;98485.25;;;-0.52;78.58
45369;BME280;51342;55.250;37.668;2023-02-01T05:23:09;98485.41;;;-0.50;78.68
45369;BME280;51342;55.250;37.668;2023-02-01T05:25:41;98484.38;;;-0.52;78.67
45369;BME280;51342;55.250;37.668;2023-02-01T05:28:12;98489.72;;;-0.49;78.66
45369;BME280;51342;55.250;37.668;2023-02-01T05:30:43;98479.28;;;-0.52;78.28
45369;BME280;51342;55.250;37.668;2023-02-01T05:33:15;98484.38;;;-0.52;78.60
45369;BME280;51342;55.250;37.668;2023-02-01T05:35:46;98479.28;;;-0.52;78.85
45369;BME280;51342;55.250;37.668;2023-02-01T05:38:18;98492.25;;;-0.49;78.69
45369;BME280;51342;55.250;37.668;2023-02-01T05:40:49;98486.41;;;-0.48;78.58
45369;BME280;51342;55.250;37.668;2023-02-01T05:43:21;98502.53;;;-0.48;78.54
45369;BME280;51342;55.250;37.668;2023-02-01T05:45:52;98493.25;;;-0.47;78.54
45369;BME280;51342;55.250;37.668;2023-02-01T05:48:24;98489.19;;;-0.45;78.53
45369;BME280;51342;55.250;37.668;2023-02-01T05:50:55;98493.03;;;-0.50;78.53
45369;BME280;51342;55.250;37.668;2023-02-01T05:53:27;98494.13;;;-0.47;78.39
45369;BME280;51342;55.250;37.668;2023-02-01T05:55:58;98497.72;;;-0.45;78.53
45369;BME280;51342;55.250;37.668;2023-02-01T05:58:30;98501.91;;;-0.45;78.34
45369;BME280;51342;55.250;37.668;2023-02-01T06:01:03;98502.66;;;-0.46;78.27
45369;BME280;51342;55.250;37.668;2023-02-01T06:03:34;98511.31;;;-0.44;78.22
45369;BME280;51342;55.250;37.668;2023-02-01T06:06:06;98498.72;;;-0.43;78.53
45369;BME280;51342;55.250;37.668;2023-02-01T06:08:39;98507.22;;;-0.42;78.55
45369;BME280;51342;55.250;37.668;2023-02-01T06:11:13;98508.97;;;-0.41;78.50
45369;BME280;51342;55.250;37.668;2023-02-01T06:13:44;98510.75;;;-0.40;78.17
45369;BME280;51342;55.250;37.668;2023-02-01T06:16:16;98508.22;;;-0.40;78.36
45369;BME280;51342;55.250;37.668;2023-02-01T06:18:47;98503.91;;;-0.41;78.18
45369;BME280;51342;55.250;37.668;2023-02-01T06:21:18;98510.00;;;-0.39;78.40
45369;BME280;51342;55.250;37.668;2023-02-01T06:23:54;98512.56;;;-0.39;78.00
45369;BME280;51342;55.250;37.668;2023-02-01T06:26:28;98515.09;;;-0.39;78.14
45369;BME280;51342;55.250;37.668;2023-02-01T06:29:00;98512.66;;;-0.38;78.12
45369;BME280;51342;55.250;37.668;2023-02-01T06:31:31;98502.13;;;-0.42;78.08
45369;BME280;51342;55.250;37.668;2023-02-01T06:34:03;98511.13;;;-0.36;77.91
45369;BME280;51342;55.250;37.668;2023-02-01T06:36:34;98508.69;;;-0.34;77.92
45369;BME280;51342;55.250;37.668;2023-02-01T06:39:06;98515.59;;;-0.33;77.79
45369;BME280;51342;55.250;37.668;2023-02-01T06:41:38;98518.34;;;-0.30;77.85
45369;BME280;51342;55.250;37.668;2023-02-01T06:44:10;98522.81;;;-0.28;77.89
45369;BME280;51342;55.250;37.668;2023-02-01T06:46:41;98521.94;;;-0.28;77.80
45369;BME280;51342;55.250;37.668;2023-02-01T06:49:13;98517.06;;;-0.25;77.50
45369;BME280;51342;55.250;37.668;2023-02-01T06:51:44;98520.38;;;-0.26;77.56
45369;BME280;51342;55.250;37.668;2023-02-01T06:54:16;98525.69;;;-0.23;77.70
45369;BME280;51342;55.250;37.668;2023-02-01T06:56:47;98530.16;;;-0.20;77.50
45369;BME280;51342;55.250;37.668;2023-02-01T06:59:19;98534.47;;;-0.19;77.69
45369;BME280;51342;55.250;37.668;2023-02-01T07:01:50;98526.72;;;-0.21;77.55
45369;BME280;51342;55.250;37.668;2023-02-01T07:04:21;98524.41;;;-0.18;77.44
45369;BME280;51342;55.250;37.668;2023-02-01T07:06:53;98527.97;;;-0.16;77.05
45369;BME280;51342;55.250;37.668;2023-02-01T07:09:24;98523.78;;;-0.15;77.19
45369;BME280;51342;55.250;37.668;2023-02-01T07:11:56;98524.78;;;-0.13;77.43
45369;BME280;51342;55.250;37.668;2023-02-01T07:14:27;98524.91;;;-0.12;77.11
45369;BME280;51342;55.250;37.668;2023-02-01T07:16:58;98534.31;;;-0.11;77.06
45369;BME280;51342;55.250;37.668;2023-02-01T07:19:30;98532.78;;;-0.09;77.23
45369;BME280;51342;55.250;37.668;2023-02-01T07:22:01;98527.19;;;-0.05;77.19
45369;BME280;51342;55.250;37.668;2023-02-01T07:24:34;98531.50;;;-0.04;76.95
45369;BME280;51342;55.250;37.668;2023-02-01T07:27:05;98539.34;;;-0.01;76.78
45369;BME280;51342;55.250;37.668;2023-02-01T07:29:37;98528.69;;;-0.07;76.44
45369;BME280;51342;55.250;37.668;2023-02-01T07:32:08;98531.50;;;-0.04;76.88
45369;BME280;51342;55.250;37.668;2023-02-01T07:34:40;98540.13;;;-0.02;76.72
45369;BME280;51342;55.250;37.668;2023-02-01T07:37:11;98541.16;;;0.01;76.80
45369;BME280;51342;55.250;37.668;2023-02-01T07:39:42;98530.09;;;0.00;76.41
45369;BME280;51342;55.250;37.668;2023-02-01T07:42:14;98531.47;;;0.07;76.55
45369;BME280;51342;55.250;37.668;2023-02-01T07:44:45;98536.78;;;0.10;76.31
45369;BME280;51342;55.250;37.668;2023-02-01T07:47:16;98531.69;;;0.10;76.28
45369;BME280;51342;55.250;37.668;2023-02-01T07:49:48;98540.47;;;0.13;76.10
45369;BME280;51342;55.250;37.668;2023-02-01T07:52:19;98528.63;;;0.14;76.19
45369;BME280;51342;55.250;37.668;2023-02-01T07:54:51;98540.56;;;0.15;75.95
45369;BME280;51342;55.250;37.668;2023-02-01T07:57:22;98524.06;;;0.10;75.88
45369;BME280;51342;55.250;37.668;2023-02-01T07:59:53;98521.88;;;0.14;75.86
45369;BME280;51342;55.250;37.668;2023-02-01T08:02:43;98518.69;;;0.17;75.72
45369;BME280;51342;55.250;37.668;2023-02-01T08:05:15;98512.84;;;0.18;75.68
45369;BME280;51342;55.250;37.668;2023-02-01T08:07:49;98518.56;;;0.15;75.33
45369;BME280;51342;55.250;37.668;2023-02-01T08:10:21;98525.41;;;0.16;75.34
45369;BME280;51342;55.250;37.668;2023-02-01T08:12:58;98520.47;;;0.18;75.46
45369;BME280;51342;55.250;37.668;2023-02-01T08:15:30;98529.44;;;0.03;75.85
45369;BME280;51342;55.250;37.668;2023-02-01T08:18:02;98519.44;;;0.16;75.59
45369;BME280;51342;55.250;37.668;2023-02-01T08:20:34;98530.97;;;0.22;75.57
45369;BME280;51342;55.250;37.668;2023-02-01T08:23:09;98528.44;;;0.22;75.30
45369;BME280;51342;55.250;37.668;2023-02-01T08:25:41;98531.25;;;0.25;75.43
45369;BME280;51342;55.250;37.668;2023-02-01T08:28:13;98530.47;;;0.26;75.08
45369;BME280;51342;55.250;37.668;2023-02-01T08:30:44;98529.84;;;0.29;75.20
45369;BME280;51342;55.250;37.668;2023-02-01T08:33:16;98533.38;;;0.31;75.03
45369;BME280;51342;55.250;37.668;2023-02-01T08:35:47;98526.75;;;0.33;74.76
45369;BME280;51342;55.250;37.668;2023-02-01T08:38:18;98530.06;;;0.32;74.90
45369;BME280;51342;55.250;37.668;2023-02-01T08:40:50;98527.00;;;0.36;74.62
45369;BME280;51342;55.250;37.668;2023-02-01T08:43:21;98530.53;;;0.38;74.53
45369;BME280;51342;55.250;37.668;2023-02-01T08:45:54;98516.72;;;0.35;74.51
45369;BME280;51342;55.250;37.668;2023-02-01T08:48:26;98522.25;;;0.41;74.54
45369;BME280;51342;55.250;37.668;2023-02-01T08:51:04;98524.03;;;0.42;74.36
45369;BME280;51342;55.250;37.668;2023-02-01T08:53:37;98521.59;;;0.43;74.35
45369;BME280;51342;55.250;37.668;2023-02-01T08:56:11;98524.41;;;0.46;74.52
45369;BME280;51342;55.250;37.668;2023-02-01T08:58:42;98513.81;;;0.52;74.36
45369;BME280;51342;55.250;37.668;2023-02-01T09:01:16;98518.34;;;0.56;74.33
45369;BME280;51342;55.250;37.668;2023-02-01T09:03:48;98510.28;;;0.62;74.27
45369;BME280;51342;55.250;37.668;2023-02-01T09:06:19;98513.19;;;0.66;74.12
45369;BME280;51342;55.250;37.668;2023-02-01T09:08:51;98517.75;;;0.70;73.73
45369;BME280;51342;55.250;37.668;2023-02-01T09:11:22;98508.19;;;0.68;73.77
45369;BME280;51342;55.250;37.668;2023-02-01T09:13:54;98518.63;;;0.71;73.69
45369;BME280;51342;55.250;37.668;2023-02-01T09:16:25;98510.22;;;0.72;73.81
45369;BME280;51342;55.250;37.668;2023-02-01T09:18:56;98512.22;;;0.76;73.47
45369;BME280;51342;55.250;37.668;2023-02-01T09:21:28;98514.25;;;0.80;73.44
45369;BME280;51342;55.250;37.668;2023-02-01T09:24:00;98515.25;;;0.82;73.68
45369;BME280;51342;55.250;37.668;2023-02-01T09:26:32;98509.47;;;0.85;73.32
45369;BME280;51342;55.250;37.668;2023-02-01T09:29:04;98502.97;;;0.88;72.93
45369;BME280;51342;55.250;37.668;2023-02-01T09:31:41;98504.97;;;0.92;73.37
45369;BME280;51342;55.250;37.668;2023-02-01T09:34:12;98504.41;;;0.96;73.10
45369;BME280;51342;55.250;37.668;2023-02-01T09:36:44;98505.56;;;1.00;72.93
45369;BME280;51342;55.250;37.668;2023-02-01T09:39:15;98508.34;;;1.03;72.76
45369;BME280;51342;55.250;37.668;2023-02-01T09:48:01;98498.78;;;1.00;72.85
45369;BME280;51342;55.250;37.668;2023-02-01T09:50:36;98492.19;;;1.02;72.38
45369;BME280;51342;55.250;37.668;2023-02-01T09:55:49;98497.38;;;1.04;72.31
45369;BME280;51342;55.250;37.668;2023-02-01T09:58:36;98496.91;;;0.98;72.13
45369;BME280;51342;55.250;37.668;2023-02-01T10:01:24;98495.25;;;0.98;72.44
45369;BME280;51342;55.250;37.668;2023-02-01T10:04:02;98487.50;;;0.97;72.49
45369;BME280;51342;55.250;37.668;2023-02-01T10:07:11;98493.13;;;0.93;72.49
45369;BME280;51342;55.250;37.668;2023-02-01T10:13:07;98481.03;;;0.90;72.02
45369;BME280;51342;55.250;37.668;2023-02-01T10:16:10;98483.50;;;0.89;72.20
45369;BME280;51342;55.250;37.668;2023-02-01T10:21:32;98478.00;;;0.72;72.41
45369;BME280;51342;55.250;37.668;2023-02-01T10:24:39;98476.06;;;0.80;72.13
45369;BME280;51342;55.250;37.668;2023-02-01T10:27:17;98476.72;;;0.89;71.90
45369;BME280;51342;55.250;37.668;2023-02-01T10:30:06;98475.22;;;0.91;71.62
45369;BME280;51342;55.250;37.668;2023-02-01T10:32:48;98480.63;;;0.96;71.73
45369;BME280;51342;55.250;37.668;2023-02-01T10:35:33;98477.19;;;0.95;71.66
45369;BME280;51342;55.250;37.668;2023-02-01T10:38:24;98478.63;;;0.92;71.72
45369;BME280;51342;55.250;37.668;2023-02-01T10:41:15;98474.19;;;0.89;71.60
45369;BME280;51342;55.250;37.668;2023-02-01T10:43:58;98479.06;;;0.86;71.62
45369;BME280;51342;55.250;37.668;2023-02-01T10:46:31;98476.72;;;0.89;71.47
45369;BME280;51342;55.250;37.668;2023-02-01T10:49:08;98483.72;;;0.92;71.65
45369;BME280;51342;55.250;37.668;2023-02-01T10:51:47;98486.50;;;0.95;71.68
45369;BME280;51342;55.250;37.668;2023-02-01T10:54:31;98484.06;;;0.96;71.44
45369;BME280;51342;55.250;37.668;2023-02-01T10:57:10;98481.66;;;0.98;71.46
45369;BME280;51342;55.250;37.668;2023-02-01T10:59:48;98478.41;;;1.00;71.56
45369;BME280;51342;55.250;37.668;2023-02-01T11:05:12;98479.53;;;0.92;71.07
45369;BME280;51342;55.250;37.668;2023-02-01T11:07:53;98481.41;;;0.95;71.63
45369;BME280;51342;55.250;37.668;2023-02-01T11:10:39;98481.41;;;0.95;71.36
45369;BME280;51342;55.250;37.668;2023-02-01T11:13:17;98490.69;;;0.94;71.29
45369;BME280;51342;55.250;37.668;2023-02-01T11:15:55;98486.13;;;0.90;71.34
45369;BME280;51342;55.250;37.668;2023-02-01T11:18:29;98488.69;;;0.90;71.20
45369;BME280;51342;55.250;37.668;2023-02-01T11:21:01;98491.13;;;0.89;71.46
45369;BME280;51342;55.250;37.668;2023-02-01T11:23:33;98492.00;;;0.89;71.46
45369;BME280;51342;55.250;37.668;2023-02-01T11:26:13;98487.91;;;0.79;71.28
45369;BME280;51342;55.250;37.668;2023-02-01T11:28:56;98483.56;;;0.78;71.35
45369;BME280;51342;55.250;37.668;2023-02-01T11:31:29;98491.34;;;0.80;71.24
45369;BME280;51342;55.250;37.668;2023-02-01T11:34:22;98488.19;;;0.72;71.38
45369;BME280;51342;55.250;37.668;2023-02-01T11:36:58;98485.00;;;0.75;71.22
45369;BME280;51342;55.250;37.668;2023-02-01T11:39:33;98482.22;;;0.72;71.03
45369;BME280;51342;55.250;37.668;2023-02-01T11:42:16;98494.16;;;0.73;71.22
45369;BME280;51342;55.250;37.668;2023-02-01T11:44:47;98492.84;;;0.78;71.30
45369;BME280;51342;55.250;37.668;2023-02-01T11:49:58;98494.63;;;0.79;70.83
45369;BME280;51342;55.250;37.668;2023-02-01T12:06:35;98507.03;;;0.74;70.38
45369;BME280;51342;55.250;37.668;2023-02-01T12:15:19;98514.31;;;0.70;70.24
45369;BME280;51342;55.250;37.668;2023-02-01T12:23:54;98519.94;;;0.66;70.21
45369;BME280;51342;55.250;37.668;2023-02-01T12:32:26;98531.06;;;0.56;70.73
45369;BME280;51342;55.250;37.668;2023-02-01T12:35:37;98536.34;;;0.47;70.92
45369;BME280;51342;55.250;37.668;2023-02-01T12:38:29;98529.97;;;0.52;70.86
45369;BME280;51342;55.250;37.668;2023-02-01T12:41:40;98538.53;;;0.43;70.52
45369;BME280;51342;55.250;37.668;2023-02-01T12:47:46;98537.16;;;0.36;70.51
45369;BME280;51342;55.250;37.668;2023-02-01T12:50:42;98538.72;;;0.34;70.29
45369;BME280;51342;55.250;37.668;2023-02-01T12:53:32;98538.81;;;0.36;70.39
45369;BME280;51342;55.250;37.668;2023-02-01T12:56:10;98545.03;;;0.39;70.33
45369;BME280;51342;55.250;37.668;2023-02-01T12:58:45;98546.81;;;0.40;70.35
45369;BME280;51342;55.250;37.668;2023-02-01T13:01:26;98540.59;;;0.37;70.28
45369;BME280;51342;55.250;37.668;2023-02-01T13:04:05;98544.13;;;0.39;70.14
45369;BME280;51342;55.250;37.668;2023-02-01T13:06:50;98545.69;;;0.37;70.41
45369;BME280;51342;55.250;37.668;2023-02-01T13:09:38;98541.25;;;0.34;70.04
45369;BME280;51342;55.250;37.668;2023-02-01T13:12:20;98544.22;;;0.29;70.41
45369;BME280;51342;55.250;37.668;2023-02-01T13:15:04;98542.56;;;0.29;70.27
45369;BME280;51342;55.250;37.668;2023-02-01T13:17:37;98545.72;;;0.26;70.47
45369;BME280;51342;55.250;37.668;2023-02-01T13:22:45;98544.06;;;0.27;70.26
45369;BME280;51342;55.250;37.668;2023-02-01T13:25:35;98536.72;;;0.20;70.55
45369;BME280;51342;55.250;37.668;2023-02-01T13:28:26;98533.53;;;0.22;70.79
45369;BME280;51342;55.250;37.668;2023-02-01T13:36:37;98549.56;;;0.21;70.83
45369;BME280;51342;55.250;37.668;2023-02-01T13:42:31;98540.34;;;0.12;71.21
45369;BME280;51342;55.250;37.668;2023-02-01T13:45:21;98538.53;;;0.11;71.15
45369;BME280;51342;55.250;37.668;2023-02-01T13:47:57;98537.81;;;0.12;71.37
45369;BME280;51342;55.250;37.668;2023-02-01T13:50:40;98542.53;;;0.07;71.46
45369;BME280;51342;55.250;37.668;2023-02-01T13:55:54;98532.09;;;0.04;71.63
45369;BME280;51342;55.250;37.668;2023-02-01T13:58:33;98540.75;;;0.06;71.72
45369;BME280;51342;55.250;37.668;2023-02-01T14:03:56;98542.91;;;0.02;71.99
45369;BME280;51342;55.250;37.668;2023-02-01T14:09:12;98545.97;;;-0.03;72.07
45369;BME280;51342;55.250;37.668;2023-02-01T14:11:53;98548.63;;;-0.01;72.03
45369;BME280;51342;55.250;37.668;2023-02-01T14:19:32;98545.97;;;-0.03;72.25
45369;BME280;51342;55.250;37.668;2023-02-01T14:24:57;98560.75;;;-0.09;72.42
45369;BME280;51342;55.250;37.668;2023-02-01T14:27:34;98552.13;;;-0.11;72.39
45369;BME280;51342;55.250;37.668;2023-02-01T14:30:11;98562.28;;;-0.11;72.37
45369;BME280;51342;55.250;37.668;2023-02-01T14:32:46;98557.06;;;-0.12;72.38
45369;BME280;51342;55.250;37.668;2023-02-01T14:35:24;98553.41;;;-0.16;72.26
45369;BME280;51342;55.250;37.668;2023-02-01T14:38:01;98561.91;;;-0.15;72.44
45369;BME280;51342;55.250;37.668;2023-02-01T14:40:38;98562.81;;;-0.15;72.66
45369;BME280;51342;55.250;37.668;2023-02-01T14:43:09;98565.84;;;-0.19;72.50
45369;BME280;51342;55.250;37.668;2023-02-01T14:50:49;98570.16;;;-0.18;72.52
45369;BME280;51342;55.250;37.668;2023-02-01T14:53:33;98572.47;;;-0.21;72.69
45369;BME280;51342;55.250;37.668;2023-02-01T14:56:08;98567.28;;;-0.22;72.67
45369;BME280;51342;55.250;37.668;2023-02-01T14:58:44;98578.63;;;-0.39;73.03
45369;BME280;51342;55.250;37.668;2023-02-01T15:06:29;98578.75;;;-0.48;73.09
45369;BME280;51342;55.250;37.668;2023-02-01T15:09:09;98578.47;;;-0.41;73.08
45369;BME280;51342;55.250;37.668;2023-02-01T15:12:08;98582.66;;;-0.41;73.04
45369;BME280;51342;55.250;37.668;2023-02-01T15:15:02;98575.16;;;-0.40;73.01
45369;BME280;51342;55.250;37.668;2023-02-01T15:17:35;98580.63;;;-0.35;72.99
45369;BME280;51342;55.250;37.668;2023-02-01T15:20:16;98577.69;;;-0.40;72.99
45369;BME280;51342;55.250;37.668;2023-02-01T15:25:38;98584.59;;;-0.39;72.80
45369;BME280;51342;55.250;37.668;2023-02-01T15:28:14;98588.25;;;-0.35;72.82
45369;BME280;51342;55.250;37.668;2023-02-01T15:31:01;98591.31;;;-0.39;72.88
45369;BME280;51342;55.250;37.668;2023-02-01T15:33:32;98599.28;;;-0.35;72.93
45369;BME280;51342;55.250;37.668;2023-02-01T15:36:16;98589.78;;;-0.37;72.90
45369;BME280;51342;55.250;37.668;2023-02-01T15:41:47;98599.28;;;-0.35;72.91
45369;BME280;51342;55.250;37.668;2023-02-01T15:44:52;98602.88;;;-0.43;73.05
45369;BME280;51342;55.250;37.668;2023-02-01T15:47:26;98603.25;;;-0.38;73.00
45369;BME280;51342;55.250;37.668;2023-02-01T15:50:00;98592.94;;;-0.40;72.90